sensor_id;sensor_type;location;lat;lon;timestamp;P1;durP1;ratioP1;P2;durP2;ratioP2
58472;SDS011;44775;51.564;5.460;2023-03-12T00:01:24;13.18;;;8.55;;
58472;SDS011;44775;51.564;5.460;2023-03-12T00:03:51;12.90;;;8.43;;
58472;SDS011;44775;51.564;5.460;2023-03-12T00:06:18;12.05;;;7.88;;
58472;SDS011;44775;51.564;5.460;2023-03-12T00:08:44;14.30;;;8.57;;
58472;SDS011;44775;51.564;5.460;2023-03-12T00:11:12;13.85;;;8.10;;
58472;SDS011;44775;51.564;5.460;2023-03-12T00:13:40;12.55;;;7.88;;
58472;SDS011;44775;51.564;5.460;2023-03-12T00:16:12;12.18;;;8.05;;
58472;SDS011;44775;51.564;5.460;2023-03-12T00:18:39;14.20;;;9.38;;
58472;SDS011;44775;51.564;5.460;2023-03-12T00:21:05;12.52;;;8.07;;
58472;SDS011;44775;51.564;5.460;2023-03-12T00:23:31;13.05;;;7.57;;
58472;SDS011;44775;51.564;5.460;2023-03-12T00:26:03;14.32;;;7.38;;
58472;SDS011;44775;51.564;5.460;2023-03-12T00:28:34;14.30;;;7.78;;
58472;SDS011;44775;51.564;5.460;2023-03-12T00:31:00;11.13;;;7.47;;
58472;SDS011;44775;51.564;5.460;2023-03-12T00:33:27;11.77;;;7.50;;
58472;SDS011;44775;51.564;5.460;2023-03-12T00:35:53;12.45;;;7.40;;
58472;SDS011;44775;51.564;5.460;2023-03-12T00:38:19;12.38;;;8.27;;
58472;SDS011;44775;51.564;5.460;2023-03-12T00:40:45;14.30;;;7.90;;
58472;SDS011;44775;51.564;5.460;2023-03-12T00:43:10;11.38;;;8.10;;
58472;SDS011;44775;51.564;5.460;2023-03-12T00:45:35;13.63;;;7.75;;
58472;SDS011;44775;51.564;5.460;2023-03-12T00:48:00;13.80;;;8.07;;
58472;SDS011;44775;51.564;5.460;2023-03-12T00:50:26;14.00;;;7.80;;
58472;SDS011;44775;51.564;5.460;2023-03-12T00:52:51;11.85;;;7.93;;
58472;SDS011;44775;51.564;5.460;2023-03-12T00:55:17;12.13;;;7.80;;
58472;SDS011;44775;51.564;5.460;2023-03-12T00:57:42;12.35;;;7.90;;
58472;SDS011;44775;51.564;5.460;2023-03-12T01:00:08;10.98;;;8.05;;
58472;SDS011;44775;51.564;5.460;2023-03-12T01:02:35;11.75;;;7.18;;
58472;SDS011;44775;51.564;5.460;2023-03-12T01:05:02;11.13;;;7.78;;
58472;SDS011;44775;51.564;5.460;2023-03-12T01:07:28;12.50;;;7.35;;
58472;SDS011;44775;51.564;5.460;2023-03-12T01:09:53;9.98;;;7.40;;
58472;SDS011;44775;51.564;5.460;2023-03-12T01:12:18;13.10;;;7.90;;
58472;SDS011;44775;51.564;5.460;2023-03-12T01:14:44;13.63;;;8.02;;
58472;SDS011;44775;51.564;5.460;2023-03-12T01:17:09;17.20;;;7.60;;
58472;SDS011;44775;51.564;5.460;2023-03-12T01:19:34;12.85;;;8.00;;
58472;SDS011;44775;51.564;5.460;2023-03-12T01:22:01;14.23;;;7.90;;
58472;SDS011;44775;51.564;5.460;2023-03-12T01:24:26;13.13;;;7.70;;
58472;SDS011;44775;51.564;5.460;2023-03-12T01:26:51;12.10;;;8.23;;
58472;SDS011;44775;51.564;5.460;2023-03-12T01:29:17;11.93;;;7.15;;
58472;SDS011;44775;51.564;5.460;2023-03-12T01:31:42;12.27;;;7.75;;
58472;SDS011;44775;51.564;5.460;2023-03-12T01:34:09;14.95;;;8.30;;
58472;SDS011;44775;51.564;5.460;2023-03-12T01:36:35;13.93;;;7.60;;
58472;SDS011;44775;51.564;5.460;2023-03-12T01:39:00;12.43;;;7.53;;
58472;SDS011;44775;51.564;5.460;2023-03-12T01:41:26;9.93;;;7.10;;
58472;SDS011;44775;51.564;5.460;2023-03-12T01:43:53;14.93;;;7.88;;
58472;SDS011;44775;51.564;5.460;2023-03-12T01:48:59;10.88;;;7.85;;
58472;SDS011;44775;51.564;5.460;2023-03-12T01:51:34;11.88;;;7.40;;
58472;SDS011;44775;51.564;5.460;2023-03-12T01:54:05;12.18;;;7.15;;
58472;SDS011;44775;51.564;5.460;2023-03-12T01:56:35;14.75;;;7.53;;
58472;SDS011;44775;51.564;5.460;2023-03-12T01:59:07;13.68;;;7.65;;
58472;SDS011;44775;51.564;5.460;2023-03-12T02:01:38;13.43;;;8.07;;
58472;SDS011;44775;51.564;5.460;2023-03-12T02:04:05;14.32;;;7.88;;
58472;SDS011;44775;51.564;5.460;2023-03-12T02:06:35;13.45;;;7.60;;
58472;SDS011;44775;51.564;5.460;2023-03-12T02:09:07;11.93;;;7.30;;
58472;SDS011;44775;51.564;5.460;2023-03-12T02:11:33;13.85;;;8.60;;
58472;SDS011;44775;51.564;5.460;2023-03-12T02:13:58;12.32;;;7.75;;
58472;SDS011;44775;51.564;5.460;2023-03-12T02:16:24;12.65;;;7.65;;
58472;SDS011;44775;51.564;5.460;2023-03-12T02:18:50;13.80;;;7.53;;
58472;SDS011;44775;51.564;5.460;2023-03-12T02:21:20;11.80;;;7.40;;
58472;SDS011;44775;51.564;5.460;2023-03-12T02:26:19;12.40;;;7.97;;
58472;SDS011;44775;51.564;5.460;2023-03-12T02:28:45;10.52;;;7.35;;
58472;SDS011;44775;51.564;5.460;2023-03-12T02:31:14;13.15;;;7.68;;
58472;SDS011;44775;51.564;5.460;2023-03-12T02:33:44;12.95;;;7.95;;
58472;SDS011;44775;51.564;5.460;2023-03-12T02:36:09;13.55;;;7.70;;
58472;SDS011;44775;51.564;5.460;2023-03-12T02:38:40;16.40;;;7.78;;
58472;SDS011;44775;51.564;5.460;2023-03-12T02:41:11;10.80;;;7.60;;
58472;SDS011;44775;51.564;5.460;2023-03-12T02:43:41;13.98;;;7.70;;
58472;SDS011;44775;51.564;5.460;2023-03-12T02:46:10;12.45;;;7.47;;
58472;SDS011;44775;51.564;5.460;2023-03-12T02:48:36;11.43;;;7.97;;
58472;SDS011;44775;51.564;5.460;2023-03-12T02:51:01;15.25;;;7.47;;
58472;SDS011;44775;51.564;5.460;2023-03-12T02:53:27;14.38;;;8.20;;
58472;SDS011;44775;51.564;5.460;2023-03-12T02:55:53;13.32;;;8.32;;
58472;SDS011;44775;51.564;5.460;2023-03-12T02:58:19;13.90;;;8.45;;
58472;SDS011;44775;51.564;5.460;2023-03-12T03:00:45;13.65;;;8.40;;
58472;SDS011;44775;51.564;5.460;2023-03-12T03:03:10;14.30;;;8.82;;
58472;SDS011;44775;51.564;5.460;2023-03-12T03:05:35;12.70;;;8.20;;
58472;SDS011;44775;51.564;5.460;2023-03-12T03:08:01;14.35;;;8.73;;
58472;SDS011;44775;51.564;5.460;2023-03-12T03:10:27;12.70;;;9.20;;
58472;SDS011;44775;51.564;5.460;2023-03-12T03:12:53;15.10;;;9.43;;
58472;SDS011;44775;51.564;5.460;2023-03-12T03:15:18;14.73;;;9.10;;
58472;SDS011;44775;51.564;5.460;2023-03-12T03:17:43;13.55;;;9.20;;
58472;SDS011;44775;51.564;5.460;2023-03-12T03:20:09;13.40;;;8.80;;
58472;SDS011;44775;51.564;5.460;2023-03-12T03:22:35;15.10;;;9.55;;
58472;SDS011;44775;51.564;5.460;2023-03-12T03:25:01;14.85;;;8.90;;
58472;SDS011;44775;51.564;5.460;2023-03-12T03:27:27;15.05;;;10.30;;
58472;SDS011;44775;51.564;5.460;2023-03-12T03:29:53;15.82;;;9.88;;
58472;SDS011;44775;51.564;5.460;2023-03-12T03:32:18;15.82;;;9.15;;
58472;SDS011;44775;51.564;5.460;2023-03-12T03:34:44;11.55;;;8.73;;
58472;SDS011;44775;51.564;5.460;2023-03-12T03:37:09;14.50;;;7.95;;
58472;SDS011;44775;51.564;5.460;2023-03-12T03:39:35;14.23;;;8.15;;
58472;SDS011;44775;51.564;5.460;2023-03-12T03:42:00;12.10;;;7.88;;
58472;SDS011;44775;51.564;5.460;2023-03-12T03:44:25;13.05;;;7.72;;
58472;SDS011;44775;51.564;5.460;2023-03-12T03:46:51;16.17;;;7.80;;
58472;SDS011;44775;51.564;5.460;2023-03-12T03:49:17;10.95;;;7.07;;
58472;SDS011;44775;51.564;5.460;2023-03-12T03:51:43;12.63;;;8.10;;
58472;SDS011;44775;51.564;5.460;2023-03-12T03:54:08;13.20;;;7.82;;
58472;SDS011;44775;51.564;5.460;2023-03-12T03:56:34;12.48;;;7.80;;
58472;SDS011;44775;51.564;5.460;2023-03-12T03:58:59;12.82;;;8.35;;
58472;SDS011;44775;51.564;5.460;2023-03-12T04:01:26;14.90;;;8.48;;
58472;SDS011;44775;51.564;5.460;2023-03-12T04:03:51;13.18;;;7.68;;
58472;SDS011;44775;51.564;5.460;2023-03-12T04:06:17;16.85;;;8.15;;
58472;SDS011;44775;51.564;5.460;2023-03-12T04:08:42;11.68;;;7.68;;
58472;SDS011;44775;51.564;5.460;2023-03-12T04:11:09;12.20;;;8.13;;
58472;SDS011;44775;51.564;5.460;2023-03-12T04:13:36;11.95;;;7.97;;
58472;SDS011;44775;51.564;5.460;2023-03-12T04:16:02;15.25;;;8.30;;
58472;SDS011;44775;51.564;5.460;2023-03-12T04:18:28;13.90;;;8.30;;
58472;SDS011;44775;51.564;5.460;2023-03-12T04:20:54;13.27;;;8.27;;
58472;SDS011;44775;51.564;5.460;2023-03-12T04:23:19;12.43;;;8.00;;
58472;SDS011;44775;51.564;5.460;2023-03-12T04:25:44;12.05;;;8.18;;
58472;SDS011;44775;51.564;5.460;2023-03-12T04:28:10;14.73;;;8.38;;
58472;SDS011;44775;51.564;5.460;2023-03-12T04:30:35;14.40;;;8.43;;
58472;SDS011;44775;51.564;5.460;2023-03-12T04:33:02;12.65;;;7.80;;
58472;SDS011;44775;51.564;5.460;2023-03-12T04:35:28;14.93;;;8.15;;
58472;SDS011;44775;51.564;5.460;2023-03-12T04:37:53;11.23;;;7.88;;
58472;SDS011;44775;51.564;5.460;2023-03-12T04:40:19;12.93;;;8.35;;
58472;SDS011;44775;51.564;5.460;2023-03-12T04:42:44;12.88;;;7.93;;
58472;SDS011;44775;51.564;5.460;2023-03-12T04:45:10;12.82;;;8.45;;
58472;SDS011;44775;51.564;5.460;2023-03-12T04:47:35;13.40;;;8.48;;
58472;SDS011;44775;51.564;5.460;2023-03-12T04:50:01;12.02;;;8.07;;
58472;SDS011;44775;51.564;5.460;2023-03-12T04:52:26;12.50;;;7.55;;
58472;SDS011;44775;51.564;5.460;2023-03-12T04:54:52;12.73;;;7.80;;
58472;SDS011;44775;51.564;5.460;2023-03-12T04:57:18;13.35;;;7.53;;
58472;SDS011;44775;51.564;5.460;2023-03-12T04:59:44;12.55;;;8.10;;
58472;SDS011;44775;51.564;5.460;2023-03-12T05:02:09;11.57;;;7.97;;
58472;SDS011;44775;51.564;5.460;2023-03-12T05:04:34;10.77;;;7.60;;
58472;SDS011;44775;51.564;5.460;2023-03-12T05:07:00;12.02;;;7.60;;
58472;SDS011;44775;51.564;5.460;2023-03-12T05:09:25;11.73;;;7.70;;
58472;SDS011;44775;51.564;5.460;2023-03-12T05:11:50;10.63;;;7.05;;
58472;SDS011;44775;51.564;5.460;2023-03-12T05:14:16;10.88;;;7.32;;
58472;SDS011;44775;51.564;5.460;2023-03-12T05:16:41;14.57;;;7.65;;
58472;SDS011;44775;51.564;5.460;2023-03-12T05:19:06;13.23;;;7.82;;
58472;SDS011;44775;51.564;5.460;2023-03-12T05:21:32;13.38;;;7.25;;
58472;SDS011;44775;51.564;5.460;2023-03-12T05:23:57;11.48;;;7.22;;
58472;SDS011;44775;51.564;5.460;2023-03-12T05:26:24;10.63;;;7.60;;
58472;SDS011;44775;51.564;5.460;2023-03-12T05:28:51;15.15;;;7.88;;
58472;SDS011;44775;51.564;5.460;2023-03-12T05:31:17;12.27;;;6.45;;
58472;SDS011;44775;51.564;5.460;2023-03-12T05:33:43;11.50;;;6.75;;
58472;SDS011;44775;51.564;5.460;2023-03-12T05:36:09;12.65;;;7.10;;
58472;SDS011;44775;51.564;5.460;2023-03-12T05:38:35;14.68;;;6.78;;
58472;SDS011;44775;51.564;5.460;2023-03-12T05:41:01;11.32;;;7.13;;
58472;SDS011;44775;51.564;5.460;2023-03-12T05:43:26;13.45;;;7.32;;
58472;SDS011;44775;51.564;5.460;2023-03-12T05:45:53;15.85;;;7.80;;
58472;SDS011;44775;51.564;5.460;2023-03-12T05:48:22;15.02;;;8.27;;
58472;SDS011;44775;51.564;5.460;2023-03-12T05:50:47;14.00;;;7.00;;
58472;SDS011;44775;51.564;5.460;2023-03-12T05:53:12;13.63;;;7.22;;
58472;SDS011;44775;51.564;5.460;2023-03-12T05:55:38;12.38;;;7.05;;
58472;SDS011;44775;51.564;5.460;2023-03-12T05:58:04;15.82;;;8.00;;
58472;SDS011;44775;51.564;5.460;2023-03-12T06:00:31;15.77;;;7.88;;
58472;SDS011;44775;51.564;5.460;2023-03-12T06:02:56;21.60;;;8.25;;
58472;SDS011;44775;51.564;5.460;2023-03-12T06:05:22;16.20;;;8.13;;
58472;SDS011;44775;51.564;5.460;2023-03-12T06:07:47;13.00;;;7.50;;
58472;SDS011;44775;51.564;5.460;2023-03-12T06:10:13;13.15;;;6.95;;
58472;SDS011;44775;51.564;5.460;2023-03-12T06:12:38;14.13;;;8.25;;
58472;SDS011;44775;51.564;5.460;2023-03-12T06:15:04;13.68;;;8.00;;
58472;SDS011;44775;51.564;5.460;2023-03-12T06:17:30;17.98;;;8.50;;
58472;SDS011;44775;51.564;5.460;2023-03-12T06:19:56;13.10;;;8.00;;
58472;SDS011;44775;51.564;5.460;2023-03-12T06:22:22;13.70;;;8.50;;
58472;SDS011;44775;51.564;5.460;2023-03-12T06:24:47;13.10;;;7.60;;
58472;SDS011;44775;51.564;5.460;2023-03-12T06:27:13;13.07;;;7.63;;
58472;SDS011;44775;51.564;5.460;2023-03-12T06:29:39;14.77;;;8.57;;
58472;SDS011;44775;51.564;5.460;2023-03-12T06:32:05;17.55;;;8.65;;
58472;SDS011;44775;51.564;5.460;2023-03-12T06:34:30;15.40;;;8.60;;
58472;SDS011;44775;51.564;5.460;2023-03-12T06:36:56;15.43;;;9.23;;
58472;SDS011;44775;51.564;5.460;2023-03-12T06:39:23;14.32;;;8.63;;
58472;SDS011;44775;51.564;5.460;2023-03-12T06:41:48;17.08;;;8.68;;
58472;SDS011;44775;51.564;5.460;2023-03-12T06:44:14;15.90;;;9.30;;
58472;SDS011;44775;51.564;5.460;2023-03-12T06:46:39;20.42;;;10.02;;
58472;SDS011;44775;51.564;5.460;2023-03-12T06:49:05;16.58;;;9.30;;
58472;SDS011;44775;51.564;5.460;2023-03-12T06:51:30;19.73;;;9.40;;
58472;SDS011;44775;51.564;5.460;2023-03-12T06:53:55;14.85;;;9.95;;
58472;SDS011;44775;51.564;5.460;2023-03-12T06:56:21;16.67;;;10.15;;
58472;SDS011;44775;51.564;5.460;2023-03-12T06:58:46;20.15;;;10.32;;
58472;SDS011;44775;51.564;5.460;2023-03-12T07:01:11;19.60;;;11.15;;
58472;SDS011;44775;51.564;5.460;2023-03-12T07:03:37;16.40;;;10.82;;
58472;SDS011;44775;51.564;5.460;2023-03-12T07:06:02;18.27;;;9.88;;
58472;SDS011;44775;51.564;5.460;2023-03-12T07:08:28;17.73;;;10.50;;
58472;SDS011;44775;51.564;5.460;2023-03-12T07:10:56;17.90;;;9.30;;
58472;SDS011;44775;51.564;5.460;2023-03-12T07:13:22;18.10;;;9.80;;
58472;SDS011;44775;51.564;5.460;2023-03-12T07:15:48;18.80;;;11.05;;
58472;SDS011;44775;51.564;5.460;2023-03-12T07:18:13;16.17;;;9.30;;
58472;SDS011;44775;51.564;5.460;2023-03-12T07:20:40;22.08;;;11.63;;
58472;SDS011;44775;51.564;5.460;2023-03-12T07:23:06;19.17;;;10.93;;
58472;SDS011;44775;51.564;5.460;2023-03-12T07:25:35;19.30;;;11.43;;
58472;SDS011;44775;51.564;5.460;2023-03-12T07:28:02;16.77;;;11.55;;
58472;SDS011;44775;51.564;5.460;2023-03-12T07:30:28;20.40;;;12.15;;
58472;SDS011;44775;51.564;5.460;2023-03-12T07:35:22;25.27;;;11.90;;
58472;SDS011;44775;51.564;5.460;2023-03-12T07:37:47;28.77;;;13.07;;
58472;SDS011;44775;51.564;5.460;2023-03-12T07:40:13;19.08;;;11.90;;
58472;SDS011;44775;51.564;5.460;2023-03-12T07:42:38;21.73;;;12.52;;
58472;SDS011;44775;51.564;5.460;2023-03-12T07:45:03;18.30;;;11.40;;
58472;SDS011;44775;51.564;5.460;2023-03-12T07:47:29;22.73;;;11.52;;
58472;SDS011;44775;51.564;5.460;2023-03-12T07:49:55;32.33;;;12.55;;
58472;SDS011;44775;51.564;5.460;2023-03-12T07:52:20;20.83;;;12.10;;
58472;SDS011;44775;51.564;5.460;2023-03-12T07:54:46;20.13;;;12.75;;
58472;SDS011;44775;51.564;5.460;2023-03-12T07:57:11;50.15;;;12.35;;
58472;SDS011;44775;51.564;5.460;2023-03-12T07:59:36;19.20;;;12.73;;
58472;SDS011;44775;51.564;5.460;2023-03-12T08:02:01;18.20;;;11.88;;
58472;SDS011;44775;51.564;5.460;2023-03-12T08:04:27;19.13;;;12.23;;
58472;SDS011;44775;51.564;5.460;2023-03-12T08:06:52;21.88;;;13.20;;
58472;SDS011;44775;51.564;5.460;2023-03-12T08:09:17;19.73;;;11.65;;
58472;SDS011;44775;51.564;5.460;2023-03-12T08:11:43;20.38;;;13.57;;
58472;SDS011;44775;51.564;5.460;2023-03-12T08:14:09;21.42;;;13.52;;
58472;SDS011;44775;51.564;5.460;2023-03-12T08:16:34;22.52;;;16.05;;
58472;SDS011;44775;51.564;5.460;2023-03-12T08:18:59;24.20;;;15.68;;
58472;SDS011;44775;51.564;5.460;2023-03-12T08:21:24;19.73;;;14.02;;
58472;SDS011;44775;51.564;5.460;2023-03-12T08:23:50;18.38;;;13.27;;
58472;SDS011;44775;51.564;5.460;2023-03-12T08:26:15;19.23;;;13.88;;
58472;SDS011;44775;51.564;5.460;2023-03-12T08:28:40;21.58;;;14.82;;
58472;SDS011;44775;51.564;5.460;2023-03-12T08:31:06;23.73;;;17.23;;
58472;SDS011;44775;51.564;5.460;2023-03-12T08:33:33;21.23;;;13.73;;
58472;SDS011;44775;51.564;5.460;2023-03-12T08:35:58;22.38;;;16.67;;
58472;SDS011;44775;51.564;5.460;2023-03-12T08:38:24;20.73;;;15.13;;
58472;SDS011;44775;51.564;5.460;2023-03-12T08:40:59;28.13;;;14.82;;
58472;SDS011;44775;51.564;5.460;2023-03-12T08:43:25;20.35;;;15.25;;
58472;SDS011;44775;51.564;5.460;2023-03-12T08:45:55;23.40;;;12.52;;
58472;SDS011;44775;51.564;5.460;2023-03-12T08:48:21;21.10;;;14.82;;
58472;SDS011;44775;51.564;5.460;2023-03-12T08:50:46;18.27;;;13.82;;
58472;SDS011;44775;51.564;5.460;2023-03-12T08:53:12;20.77;;;12.70;;
58472;SDS011;44775;51.564;5.460;2023-03-12T08:55:37;21.10;;;14.18;;
58472;SDS011;44775;51.564;5.460;2023-03-12T08:58:02;19.08;;;14.05;;
58472;SDS011;44775;51.564;5.460;2023-03-12T09:00:27;21.02;;;14.30;;
58472;SDS011;44775;51.564;5.460;2023-03-12T09:02:53;20.30;;;14.00;;
58472;SDS011;44775;51.564;5.460;2023-03-12T09:05:22;24.55;;;14.85;;
58472;SDS011;44775;51.564;5.460;2023-03-12T09:07:47;26.77;;;17.13;;
58472;SDS011;44775;51.564;5.460;2023-03-12T09:10:14;26.15;;;16.00;;
58472;SDS011;44775;51.564;5.460;2023-03-12T09:12:39;26.52;;;16.63;;
58472;SDS011;44775;51.564;5.460;2023-03-12T09:15:05;35.03;;;16.70;;
58472;SDS011;44775;51.564;5.460;2023-03-12T09:17:31;33.30;;;18.90;;
58472;SDS011;44775;51.564;5.460;2023-03-12T09:19:56;27.02;;;15.23;;
58472;SDS011;44775;51.564;5.460;2023-03-12T09:22:22;33.00;;;19.55;;
58472;SDS011;44775;51.564;5.460;2023-03-12T09:24:47;38.70;;;21.58;;
58472;SDS011;44775;51.564;5.460;2023-03-12T09:27:12;37.65;;;20.83;;
58472;SDS011;44775;51.564;5.460;2023-03-12T09:29:38;37.15;;;21.92;;
58472;SDS011;44775;51.564;5.460;2023-03-12T09:32:03;38.20;;;20.95;;
58472;SDS011;44775;51.564;5.460;2023-03-12T09:34:29;38.72;;;22.52;;
58472;SDS011;44775;51.564;5.460;2023-03-12T09:36:54;32.55;;;20.77;;
58472;SDS011;44775;51.564;5.460;2023-03-12T09:39:20;37.65;;;22.15;;
58472;SDS011;44775;51.564;5.460;2023-03-12T09:41:46;36.63;;;22.73;;
58472;SDS011;44775;51.564;5.460;2023-03-12T09:44:22;38.42;;;24.15;;
58472;SDS011;44775;51.564;5.460;2023-03-12T09:46:52;34.58;;;21.17;;
58472;SDS011;44775;51.564;5.460;2023-03-12T09:51:48;35.60;;;22.45;;
58472;SDS011;44775;51.564;5.460;2023-03-12T09:54:33;35.80;;;22.23;;
58472;SDS011;44775;51.564;5.460;2023-03-12T09:57:08;32.05;;;21.60;;
58472;SDS011;44775;51.564;5.460;2023-03-12T09:59:38;34.78;;;21.63;;
58472;SDS011;44775;51.564;5.460;2023-03-12T10:02:04;28.05;;;19.80;;
58472;SDS011;44775;51.564;5.460;2023-03-12T10:04:52;29.75;;;20.67;;
58472;SDS011;44775;51.564;5.460;2023-03-12T10:07:35;31.02;;;21.02;;
58472;SDS011;44775;51.564;5.460;2023-03-12T10:10:11;29.05;;;16.85;;
58472;SDS011;44775;51.564;5.460;2023-03-12T10:12:45;37.25;;;23.27;;
58472;SDS011;44775;51.564;5.460;2023-03-12T10:25:47;33.67;;;20.27;;
58472;SDS011;44775;51.564;5.460;2023-03-12T10:28:19;36.15;;;21.17;;
58472;SDS011;44775;51.564;5.460;2023-03-12T10:30:53;32.35;;;19.95;;
58472;SDS011;44775;51.564;5.460;2023-03-12T10:33:22;33.33;;;20.10;;
58472;SDS011;44775;51.564;5.460;2023-03-12T10:35:52;31.38;;;20.15;;
58472;SDS011;44775;51.564;5.460;2023-03-12T10:38:26;32.28;;;20.25;;
58472;SDS011;44775;51.564;5.460;2023-03-12T10:40:54;33.47;;;20.27;;
58472;SDS011;44775;51.564;5.460;2023-03-12T10:43:19;35.85;;;20.13;;
58472;SDS011;44775;51.564;5.460;2023-03-12T10:45:55;34.97;;;17.48;;
58472;SDS011;44775;51.564;5.460;2023-03-12T10:48:46;37.30;;;19.58;;
58472;SDS011;44775;51.564;5.460;2023-03-12T10:51:11;38.90;;;19.38;;
58472;SDS011;44775;51.564;5.460;2023-03-12T10:53:37;34.92;;;18.02;;
58472;SDS011;44775;51.564;5.460;2023-03-12T10:56:11;34.05;;;18.95;;
58472;SDS011;44775;51.564;5.460;2023-03-12T11:01:25;34.50;;;18.48;;
58472;SDS011;44775;51.564;5.460;2023-03-12T11:03:51;33.38;;;17.52;;
58472;SDS011;44775;51.564;5.460;2023-03-12T11:06:25;36.65;;;18.45;;
58472;SDS011;44775;51.564;5.460;2023-03-12T11:11:33;37.08;;;17.50;;
58472;SDS011;44775;51.564;5.460;2023-03-12T11:14:07;34.13;;;17.08;;
58472;SDS011;44775;51.564;5.460;2023-03-12T11:16:40;37.00;;;17.10;;
58472;SDS011;44775;51.564;5.460;2023-03-12T11:19:06;38.72;;;17.55;;
58472;SDS011;44775;51.564;5.460;2023-03-12T11:21:33;37.50;;;17.35;;
58472;SDS011;44775;51.564;5.460;2023-03-12T11:26:39;32.80;;;16.95;;
58472;SDS011;44775;51.564;5.460;2023-03-12T11:29:27;34.65;;;15.32;;
58472;SDS011;44775;51.564;5.460;2023-03-12T11:32:01;38.85;;;15.02;;
58472;SDS011;44775;51.564;5.460;2023-03-12T11:34:30;35.83;;;16.48;;
58472;SDS011;44775;51.564;5.460;2023-03-12T11:37:09;40.90;;;16.02;;
58472;SDS011;44775;51.564;5.460;2023-03-12T11:42:26;37.63;;;15.30;;
58472;SDS011;44775;51.564;5.460;2023-03-12T11:47:48;30.38;;;11.60;;
58472;SDS011;44775;51.564;5.460;2023-03-12T11:50:24;39.70;;;13.70;;
58472;SDS011;44775;51.564;5.460;2023-03-12T12:01:04;36.67;;;12.73;;
58472;SDS011;44775;51.564;5.460;2023-03-12T12:06:32;30.92;;;9.00;;
58472;SDS011;44775;51.564;5.460;2023-03-12T12:11:55;25.02;;;7.93;;
58472;SDS011;44775;51.564;5.460;2023-03-12T12:26:07;29.67;;;8.57;;
58472;SDS011;44775;51.564;5.460;2023-03-12T12:36:49;28.13;;;8.63;;
58472;SDS011;44775;51.564;5.460;2023-03-12T12:41:57;29.90;;;9.82;;
58472;SDS011;44775;51.564;5.460;2023-03-12T12:44:27;26.33;;;8.07;;
58472;SDS011;44775;51.564;5.460;2023-03-12T12:46:58;28.73;;;7.78;;
58472;SDS011;44775;51.564;5.460;2023-03-12T12:51:56;27.00;;;7.72;;
58472;SDS011;44775;51.564;5.460;2023-03-12T12:57:12;23.92;;;7.82;;
58472;SDS011;44775;51.564;5.460;2023-03-12T12:59:57;26.30;;;7.88;;
58472;SDS011;44775;51.564;5.460;2023-03-12T13:02:33;34.15;;;9.00;;
58472;SDS011;44775;51.564;5.460;2023-03-12T13:05:03;26.42;;;9.20;;
58472;SDS011;44775;51.564;5.460;2023-03-12T13:07:43;34.25;;;11.60;;
58472;SDS011;44775;51.564;5.460;2023-03-12T13:10:36;34.97;;;10.43;;
58472;SDS011;44775;51.564;5.460;2023-03-12T13:12:56;31.45;;;11.52;;
58472;SDS011;44775;51.564;5.460;2023-03-12T13:20:27;29.58;;;9.18;;
58472;SDS011;44775;51.564;5.460;2023-03-12T13:26:05;21.55;;;7.00;;
58472;SDS011;44775;51.564;5.460;2023-03-12T13:31:32;22.15;;;5.80;;
58472;SDS011;44775;51.564;5.460;2023-03-12T13:36:30;31.55;;;5.55;;
58472;SDS011;44775;51.564;5.460;2023-03-12T13:41:36;26.83;;;6.20;;
58472;SDS011;44775;51.564;5.460;2023-03-12T13:46:47;23.13;;;5.03;;
58472;SDS011;44775;51.564;5.460;2023-03-12T13:49:23;25.30;;;6.10;;
58472;SDS011;44775;51.564;5.460;2023-03-12T13:51:57;28.63;;;5.78;;
58472;SDS011;44775;51.564;5.460;2023-03-12T13:54:26;21.85;;;5.50;;
58472;SDS011;44775;51.564;5.460;2023-03-12T13:57:02;27.83;;;6.10;;
58472;SDS011;44775;51.564;5.460;2023-03-12T13:59:34;25.98;;;6.03;;
58472;SDS011;44775;51.564;5.460;2023-03-12T14:02:19;23.45;;;5.70;;
58472;SDS011;44775;51.564;5.460;2023-03-12T14:04:49;24.88;;;5.30;;
58472;SDS011;44775;51.564;5.460;2023-03-12T14:15:25;27.73;;;5.63;;
58472;SDS011;44775;51.564;5.460;2023-03-12T14:18:00;27.52;;;5.43;;
58472;SDS011;44775;51.564;5.460;2023-03-12T14:20:36;24.33;;;6.28;;
58472;SDS011;44775;51.564;5.460;2023-03-12T14:23:04;27.23;;;6.13;;
58472;SDS011;44775;51.564;5.460;2023-03-12T14:25:35;23.92;;;5.50;;
58472;SDS011;44775;51.564;5.460;2023-03-12T14:28:09;25.17;;;6.07;;
58472;SDS011;44775;51.564;5.460;2023-03-12T14:30:47;18.83;;;4.55;;
58472;SDS011;44775;51.564;5.460;2023-03-12T14:33:16;27.88;;;5.72;;
58472;SDS011;44775;51.564;5.460;2023-03-12T14:36:25;21.58;;;4.30;;
58472;SDS011;44775;51.564;5.460;2023-03-12T14:38:44;24.70;;;5.32;;
58472;SDS011;44775;51.564;5.460;2023-03-12T14:43:56;27.98;;;5.32;;
58472;SDS011;44775;51.564;5.460;2023-03-12T14:46:28;34.97;;;6.22;;
58472;SDS011;44775;51.564;5.460;2023-03-12T14:48:53;18.98;;;4.30;;
58472;SDS011;44775;51.564;5.460;2023-03-12T14:51:23;19.65;;;4.22;;
58472;SDS011;44775;51.564;5.460;2023-03-12T14:53:51;24.90;;;5.22;;
58472;SDS011;44775;51.564;5.460;2023-03-12T14:56:27;23.65;;;5.18;;
58472;SDS011;44775;51.564;5.460;2023-03-12T14:58:55;31.40;;;5.20;;
58472;SDS011;44775;51.564;5.460;2023-03-12T15:01:26;26.27;;;5.53;;
58472;SDS011;44775;51.564;5.460;2023-03-12T15:03:56;25.10;;;5.13;;
58472;SDS011;44775;51.564;5.460;2023-03-12T15:06:29;27.83;;;5.15;;
58472;SDS011;44775;51.564;5.460;2023-03-12T15:08:57;30.90;;;5.53;;
58472;SDS011;44775;51.564;5.460;2023-03-12T15:11:26;30.23;;;5.70;;
58472;SDS011;44775;51.564;5.460;2023-03-12T15:13:53;34.78;;;5.68;;
58472;SDS011;44775;51.564;5.460;2023-03-12T15:16:20;23.50;;;5.30;;
58472;SDS011;44775;51.564;5.460;2023-03-12T15:18:48;28.92;;;5.72;;
58472;SDS011;44775;51.564;5.460;2023-03-12T15:21:14;25.55;;;4.95;;
58472;SDS011;44775;51.564;5.460;2023-03-12T15:23:41;23.20;;;5.40;;
58472;SDS011;44775;51.564;5.460;2023-03-12T15:28:54;18.25;;;3.78;;
58472;SDS011;44775;51.564;5.460;2023-03-12T15:31:22;24.50;;;4.93;;
58472;SDS011;44775;51.564;5.460;2023-03-12T15:33:58;27.52;;;5.90;;
58472;SDS011;44775;51.564;5.460;2023-03-12T15:36:26;23.63;;;5.50;;
58472;SDS011;44775;51.564;5.460;2023-03-12T15:38:54;26.50;;;5.22;;
58472;SDS011;44775;51.564;5.460;2023-03-12T15:41:25;34.92;;;5.75;;
58472;SDS011;44775;51.564;5.460;2023-03-12T15:43:55;28.88;;;6.05;;
58472;SDS011;44775;51.564;5.460;2023-03-12T15:46:23;25.58;;;5.85;;
58472;SDS011;44775;51.564;5.460;2023-03-12T15:48:56;27.77;;;5.40;;
58472;SDS011;44775;51.564;5.460;2023-03-12T15:51:31;26.27;;;5.95;;
58472;SDS011;44775;51.564;5.460;2023-03-12T15:53:59;27.45;;;5.68;;
58472;SDS011;44775;51.564;5.460;2023-03-12T15:56:36;25.60;;;6.38;;
58472;SDS011;44775;51.564;5.460;2023-03-12T15:59:03;26.67;;;5.47;;
58472;SDS011;44775;51.564;5.460;2023-03-12T16:01:46;30.98;;;6.50;;
58472;SDS011;44775;51.564;5.460;2023-03-12T16:04:13;31.92;;;5.80;;
58472;SDS011;44775;51.564;5.460;2023-03-12T16:06:39;27.95;;;5.88;;
58472;SDS011;44775;51.564;5.460;2023-03-12T16:09:08;26.17;;;5.30;;
58472;SDS011;44775;51.564;5.460;2023-03-12T16:11:37;29.70;;;5.28;;
58472;SDS011;44775;51.564;5.460;2023-03-12T16:14:04;29.98;;;6.18;;
58472;SDS011;44775;51.564;5.460;2023-03-12T16:16:34;28.05;;;5.72;;
58472;SDS011;44775;51.564;5.460;2023-03-12T16:18:59;23.40;;;5.40;;
58472;SDS011;44775;51.564;5.460;2023-03-12T16:21:24;27.33;;;5.03;;
58472;SDS011;44775;51.564;5.460;2023-03-12T16:23:50;26.05;;;5.63;;